Time;durP1;ratioP1;P1;durP2;ratioP2;P2;SDS_P1;SDS_P2;PMS_P1;PMS_P2;Temp;Humidity;BMP_temperature;BMP_pressure;BME280_temperature;BME280_humidity;BME280_pressure;Samples;Min_cycle;Max_cycle;Signal;HPM_P1;HPM_P2
2022/04/01 00:02:19;;;;;;;4.80;3.50;;;0.30;99.90;;;;;;4860514;29;20069;-67
2022/04/01 00:04:45;;;;;;;3.67;2.55;;;0.40;99.90;;;;;;4859773;29;20050;-68
2022/04/01 00:07:11;;;;;;;5.20;2.45;;;0.30;99.90;;;;;;4840452;29;20091;-67
2022/04/01 00:09:37;;;;;;;3.78;2.80;;;0.30;99.90;;;;;;4842545;29;20058;-69
2022/04/01 00:12:07;;;;;;;4.30;2.90;;;0.30;99.90;;;;;;4840517;29;20135;-67
2022/04/01 00:14:32;;;;;;;3.55;2.65;;;0.30;99.90;;;;;;4841246;29;20523;-69
2022/04/01 00:16:58;;;;;;;5.43;2.65;;;0.30;99.90;;;;;;4840980;29;20062;-68
2022/04/01 00:19:24;;;;;;;3.13;2.58;;;0.30;99.90;;;;;;4840664;29;20405;-69
2022/04/01 00:21:50;;;;;;;4.97;2.40;;;0.30;99.90;;;;;;4853316;29;20050;-68
2022/04/01 00:24:16;;;;;;;5.45;2.30;;;0.30;99.90;;;;;;4860668;29;20061;-68
2022/04/01 00:26:42;;;;;;;4.93;2.15;;;0.30;99.90;;;;;;4850484;29;20062;-68
2022/04/01 00:29:17;;;;;;;4.47;3.00;;;0.30;99.90;;;;;;4842331;29;20112;-68
2022/04/01 00:31:58;;;;;;;4.72;2.25;;;0.30;99.90;;;;;;4842299;29;20046;-68
2022/04/01 00:34:28;;;;;;;3.78;2.00;;;0.30;99.90;;;;;;4842105;29;20058;-68
2022/04/01 00:36:54;;;;;;;6.38;2.20;;;0.30;99.90;;;;;;4841582;29;20187;-69
2022/04/01 00:39:21;;;;;;;3.97;2.10;;;0.30;99.90;;;;;;4845427;29;20049;-67
2022/04/01 00:41:47;;;;;;;3.25;2.00;;;0.30;99.90;;;;;;4844052;29;20063;-68
2022/04/01 00:44:24;;;;;;;4.32;1.90;;;0.20;99.90;;;;;;4846025;29;20057;-68
2022/04/01 00:46:56;;;;;;;2.25;1.75;;;0.30;99.90;;;;;;4845160;29;20348;-68
2022/04/01 00:49:23;;;;;;;3.03;2.00;;;0.30;99.90;;;;;;4854964;29;20093;-68
2022/04/01 00:51:51;;;;;;;3.25;2.10;;;0.30;99.90;;;;;;4845708;29;20275;-67
2022/04/01 00:54:17;;;;;;;2.97;2.10;;;0.30;99.90;;;;;;4845409;29;20058;-69
2022/04/01 00:56:43;;;;;;;2.60;1.98;;;0.30;99.90;;;;;;4843277;29;20070;-68
2022/04/01 00:59:09;;;;;;;2.72;1.80;;;0.40;99.90;;;;;;4845332;29;20053;-67
2022/04/01 01:01:37;;;;;;;3.08;1.90;;;0.40;99.90;;;;;;4853829;29;20554;-68
2022/04/01 01:04:04;;;;;;;4.43;1.88;;;0.40;99.90;;;;;;4860061;29;20065;-68
2022/04/01 01:06:31;;;;;;;3.25;1.70;;;0.30;99.90;;;;;;4857660;29;20058;-68
2022/04/01 01:08:58;;;;;;;5.35;2.25;;;0.40;99.90;;;;;;4863560;29;20419;-68
2022/04/01 01:11:25;;;;;;;4.82;2.05;;;0.30;99.90;;;;;;4846824;29;20066;-67
2022/04/01 01:13:51;;;;;;;2.30;1.83;;;0.30;99.90;;;;;;4861631;29;20092;-68
2022/04/01 01:16:17;;;;;;;4.43;2.40;;;0.30;99.90;;;;;;4863179;29;20140;-67
2022/04/01 01:18:43;;;;;;;3.35;1.77;;;0.40;99.90;;;;;;4854222;29;20140;-67
2022/04/01 01:21:09;;;;;;;3.40;1.60;;;0.40;99.90;;;;;;4863615;29;20143;-69
2022/04/01 01:23:37;;;;;;;2.45;1.90;;;0.40;99.90;;;;;;4846754;29;20443;-67
2022/04/01 01:26:03;;;;;;;2.97;2.22;;;0.40;99.90;;;;;;4862204;29;20073;-67
2022/04/01 01:28:29;;;;;;;5.03;2.08;;;0.40;99.90;;;;;;4860190;29;20081;-67
2022/04/01 01:30:54;;;;;;;3.85;1.75;;;0.40;99.90;;;;;;4861968;29;20085;-68
2022/04/01 01:33:21;;;;;;;3.88;1.70;;;0.50;99.90;;;;;;4862955;29;20388;-67
2022/04/01 01:35:47;;;;;;;9.07;2.22;;;0.50;99.90;;;;;;4863375;29;20061;-68
2022/04/01 01:38:19;;;;;;;5.03;2.03;;;0.50;99.90;;;;;;4856135;29;20053;-68
2022/04/01 01:40:45;;;;;;;4.47;2.00;;;0.50;99.90;;;;;;4864923;29;20104;-67
2022/04/01 01:43:11;;;;;;;5.05;2.00;;;0.50;99.90;;;;;;4863687;29;20125;-67
2022/04/01 01:45:37;;;;;;;3.28;2.10;;;0.50;99.90;;;;;;4881363;29;20510;-67
2022/04/01 01:48:04;;;;;;;3.08;1.77;;;0.60;99.90;;;;;;4877147;29;20069;-69
2022/04/01 01:55:58;;;;;;;3.20;1.80;;;0.80;99.90;;;;;;4862575;29;20128;-68
2022/04/01 01:58:23;;;;;;;2.13;1.67;;;0.80;99.90;;;;;;4856847;29;20133;-67
2022/04/01 02:00:49;;;;;;;1.95;1.80;;;0.90;99.90;;;;;;4858166;29;20057;-67
2022/04/01 02:03:17;;;;;;;2.90;1.70;;;0.80;99.90;;;;;;4845913;29;20049;-69
2022/04/01 02:05:42;;;;;;;3.88;1.73;;;0.90;99.90;;;;;;4830513;29;20049;-68
2022/04/01 02:08:08;;;;;;;2.42;2.00;;;0.90;99.90;;;;;;4845552;29;20061;-67
2022/04/01 02:10:34;;;;;;;2.95;1.80;;;0.90;99.90;;;;;;4861959;29;20132;-67
2022/04/01 02:13:00;;;;;;;4.22;1.80;;;0.90;99.90;;;;;;4845455;29;20064;-69
2022/04/01 02:15:25;;;;;;;2.60;1.83;;;0.90;99.90;;;;;;4862214;29;20467;-67
2022/04/01 02:17:51;;;;;;;3.35;2.40;;;0.90;99.90;;;;;;4860832;29;20049;-68
2022/04/01 02:20:17;;;;;;;3.00;2.38;;;0.80;99.90;;;;;;4862292;29;20061;-68
2022/04/01 02:22:46;;;;;;;4.85;2.00;;;0.90;99.90;;;;;;4862265;29;20053;-67
2022/04/01 02:25:12;;;;;;;2.78;1.80;;;0.90;99.90;;;;;;4845318;29;20131;-68
2022/04/01 02:27:38;;;;;;;4.05;1.60;;;0.80;99.90;;;;;;4843387;29;20104;-69
2022/04/01 02:30:10;;;;;;;3.08;1.90;;;0.80;99.90;;;;;;4857574;29;20050;-68
2022/04/01 02:32:42;;;;;;;5.35;1.90;;;0.70;99.90;;;;;;4845889;29;20405;-67
2022/04/01 02:35:10;;;;;;;4.22;2.35;;;0.70;99.90;;;;;;4862012;29;20057;-69
2022/04/01 02:37:36;;;;;;;2.47;1.80;;;0.70;99.90;;;;;;4860516;29;20057;-67
2022/04/01 02:40:04;;;;;;;2.90;2.10;;;0.60;99.90;;;;;;4841372;29;20045;-67
2022/04/01 02:42:30;;;;;;;3.15;1.80;;;0.60;99.90;;;;;;4844127;29;20823;-68
2022/04/01 02:44:56;;;;;;;3.17;2.15;;;0.50;99.90;;;;;;4861924;29;20084;-67
2022/04/01 02:47:21;;;;;;;2.95;1.90;;;0.50;99.90;;;;;;4844523;29;20061;-68
2022/04/01 02:49:47;;;;;;;4.13;2.30;;;0.50;99.90;;;;;;4843827;29;20050;-67
2022/04/01 02:52:13;;;;;;;3.50;1.90;;;0.50;99.90;;;;;;4848185;29;20049;-68
2022/04/01 02:54:39;;;;;;;5.63;2.05;;;0.50;99.90;;;;;;4880182;29;20071;-68
2022/04/01 02:57:05;;;;;;;4.50;1.95;;;0.40;99.90;;;;;;4879673;29;20049;-68
2022/04/01 02:59:30;;;;;;;2.63;1.77;;;0.40;99.90;;;;;;4868821;29;20057;-68
2022/04/01 03:01:56;;;;;;;4.38;1.98;;;0.40;99.90;;;;;;4860326;29;20129;-67
2022/04/01 03:04:22;;;;;;;2.40;2.00;;;0.40;99.90;;;;;;4859498;29;20059;-68
2022/04/01 03:06:49;;;;;;;3.28;2.20;;;0.40;99.90;;;;;;4861947;29;20068;-67
2022/04/01 03:09:14;;;;;;;2.42;2.10;;;0.40;99.90;;;;;;4873071;29;20104;-68
2022/04/01 03:11:41;;;;;;;2.80;2.15;;;0.50;99.90;;;;;;4862647;29;20061;-68
2022/04/01 03:14:08;;;;;;;3.10;1.67;;;0.50;99.90;;;;;;4863128;29;20061;-67
2022/04/01 03:16:36;;;;;;;2.33;2.08;;;0.40;99.90;;;;;;4863240;29;20135;-68
2022/04/01 03:19:04;;;;;;;2.58;2.03;;;0.50;99.90;;;;;;4868649;29;20061;-67
2022/04/01 03:21:29;;;;;;;4.30;2.15;;;0.50;99.90;;;;;;4860834;29;20518;-67
2022/04/01 03:23:55;;;;;;;2.58;1.90;;;0.60;99.90;;;;;;4861199;29;20058;-68
2022/04/01 03:26:21;;;;;;;2.63;2.10;;;0.60;99.90;;;;;;4860980;29;20395;-68
2022/04/01 03:28:48;;;;;;;2.90;2.10;;;0.60;99.90;;;;;;4858686;29;20050;-68
2022/04/01 03:31:14;;;;;;;4.00;2.20;;;0.60;99.90;;;;;;4861019;29;20062;-68
2022/04/01 03:33:43;;;;;;;3.85;1.50;;;0.70;99.90;;;;;;4860892;29;20053;-67
2022/04/01 03:36:10;;;;;;;3.35;1.55;;;0.70;99.90;;;;;;4861261;29;20068;-68
2022/04/01 03:38:37;;;;;;;5.30;2.00;;;0.70;99.90;;;;;;4860770;29;20060;-67
2022/04/01 03:41:05;;;;;;;2.72;1.80;;;0.80;99.90;;;;;;4861390;29;20387;-67
2022/04/01 03:43:34;;;;;;;3.50;1.65;;;0.80;99.90;;;;;;4843820;29;20387;-67
2022/04/01 03:46:05;;;;;;;4.53;2.65;;;0.80;99.90;;;;;;4859806;29;20079;-67
2022/04/01 03:48:55;;;;;;;2.80;1.83;;;0.80;99.90;;;;;;4845982;29;20092;-67
2022/04/01 03:51:25;;;;;;;1.85;1.65;;;0.90;99.90;;;;;;4860973;29;20057;-67
2022/04/01 03:53:55;;;;;;;4.60;1.77;;;0.90;99.90;;;;;;4860848;29;20118;-68
2022/04/01 03:56:23;;;;;;;2.45;2.17;;;0.90;99.90;;;;;;4861082;29;20436;-68
2022/04/01 03:58:49;;;;;;;3.88;1.90;;;0.90;99.90;;;;;;4851477;29;20056;-67
2022/04/01 04:01:15;;;;;;;2.70;1.67;;;0.90;99.90;;;;;;4862526;29;20093;-68
2022/04/01 04:03:44;;;;;;;3.13;1.55;;;1.00;99.90;;;;;;4844973;29;20085;-66
2022/04/01 04:06:10;;;;;;;2.35;1.50;;;1.00;99.90;;;;;;4860810;29;20083;-67
2022/04/01 04:08:37;;;;;;;1.70;1.60;;;1.00;99.90;;;;;;4873270;29;20053;-67
2022/04/01 04:11:04;;;;;;;4.38;1.75;;;1.00;99.90;;;;;;4858665;29;20061;-67
2022/04/01 04:13:31;;;;;;;2.75;1.77;;;1.10;99.90;;;;;;4866247;29;20109;-67
2022/04/01 04:16:18;;;;;;;4.07;1.60;;;1.10;99.90;;;;;;4866490;29;20487;-67
2022/04/01 04:19:00;;;;;;;2.88;2.00;;;1.10;99.90;;;;;;4866442;29;20049;-67
2022/04/01 04:21:29;;;;;;;3.00;1.67;;;1.10;99.90;;;;;;4850192;29;20093;-68
2022/04/01 04:24:01;;;;;;;4.93;2.03;;;1.20;99.90;;;;;;4847731;29;20089;-68
2022/04/01 04:26:44;;;;;;;2.20;1.60;;;1.20;99.90;;;;;;4846584;29;20050;-68
2022/04/01 04:29:15;;;;;;;3.53;1.48;;;1.20;99.90;;;;;;4854500;29;20411;-68
2022/04/01 04:32:02;;;;;;;2.95;1.77;;;1.30;99.90;;;;;;4866172;29;20364;-68
2022/04/01 04:34:35;;;;;;;2.42;1.40;;;1.30;99.90;;;;;;4846926;29;20054;-68
2022/04/01 04:37:02;;;;;;;3.40;1.80;;;1.40;99.90;;;;;;4847058;29;20141;-67
2022/04/01 04:39:35;;;;;;;2.55;1.40;;;1.30;99.90;;;;;;4852520;29;20057;-69
2022/04/01 04:42:04;;;;;;;2.13;1.63;;;1.30;99.90;;;;;;4864355;29;20053;-68
2022/04/01 04:44:31;;;;;;;4.40;1.70;;;1.30;99.90;;;;;;4866026;29;20049;-68
2022/04/01 04:46:58;;;;;;;3.55;1.75;;;1.20;99.90;;;;;;4865764;29;20448;-68
2022/04/01 04:49:27;;;;;;;4.82;1.70;;;1.30;99.90;;;;;;4849578;29;20128;-67
2022/04/01 04:51:54;;;;;;;2.40;1.60;;;1.20;99.90;;;;;;4865879;29;20491;-68
2022/04/01 04:54:21;;;;;;;3.15;1.33;;;1.20;99.90;;;;;;4885015;29;20375;-67
2022/04/01 04:56:48;;;;;;;4.15;1.65;;;1.30;99.90;;;;;;4867807;29;20049;-68
2022/04/01 04:59:17;;;;;;;1.63;1.45;;;1.20;99.90;;;;;;4868586;29;20193;-68
2022/04/01 05:01:58;;;;;;;3.05;1.52;;;1.30;99.90;;;;;;4866715;29;20087;-69
2022/04/01 05:04:45;;;;;;;2.97;1.77;;;1.20;99.90;;;;;;4848646;29;20495;-69
2022/04/01 05:07:40;;;;;;;4.13;2.08;;;1.20;99.90;;;;;;4858869;29;20062;-68
2022/04/01 05:10:16;;;;;;;2.50;1.65;;;1.20;99.90;;;;;;4864444;29;20058;-69
2022/04/01 05:13:12;;;;;;;2.35;1.52;;;1.20;99.90;;;;;;4862623;29;20053;-67
2022/04/01 05:15:40;;;;;;;2.08;1.33;;;1.20;99.90;;;;;;4865787;29;20057;-67
2022/04/01 05:18:09;;;;;;;2.30;1.42;;;1.30;99.90;;;;;;4870911;29;20089;-68
2022/04/01 05:20:38;;;;;;;3.55;1.27;;;1.30;99.90;;;;;;4867829;29;20132;-68
2022/04/01 05:23:20;;;;;;;1.52;1.25;;;1.30;99.90;;;;;;4882824;29;20060;-65
2022/04/01 05:25:58;;;;;;;2.80;1.20;;;1.30;99.90;;;;;;4857270;29;20068;-66
2022/04/01 05:28:28;;;;;;;1.98;1.00;;;1.30;99.90;;;;;;4869575;29;20396;-66
2022/04/01 05:31:32;;;;;;;2.92;1.35;;;1.40;99.90;;;;;;4865549;29;20053;-67
2022/04/01 05:34:09;;;;;;;1.90;1.17;;;1.30;99.90;;;;;;4863391;29;20522;-67
2022/04/01 05:36:36;;;;;;;2.38;0.98;;;1.40;99.90;;;;;;4872311;29;20121;-69
2022/04/01 05:39:03;;;;;;;1.55;1.10;;;1.40;99.90;;;;;;4856065;29;20071;-69
2022/04/01 05:41:30;;;;;;;1.95;1.25;;;1.40;99.90;;;;;;4858000;29;20049;-66
2022/04/01 05:43:57;;;;;;;4.18;1.30;;;1.50;99.90;;;;;;4845604;29;20057;-69
2022/04/01 05:46:25;;;;;;;2.67;1.20;;;1.50;99.90;;;;;;4842930;29;20046;-68
2022/04/01 05:48:53;;;;;;;2.15;1.08;;;1.50;99.90;;;;;;4844384;29;20495;-68
2022/04/01 05:51:19;;;;;;;4.38;1.30;;;1.60;99.90;;;;;;4829253;29;20097;-68
2022/04/01 06:13:31;;;;;;;3.30;1.30;;;1.80;99.90;;;;;;5178727;23;20072;-69
2022/04/01 06:16:20;;;;;;;3.45;1.40;;;1.90;99.90;;;;;;4859495;29;20068;-69
2022/04/01 06:22:20;;;;;;;3.33;1.67;;;2.00;99.90;;;;;;4871444;29;20105;-68
2022/04/01 06:24:53;;;;;;;2.15;1.13;;;2.00;99.90;;;;;;4879097;29;20057;-67
2022/04/01 06:27:24;;;;;;;4.75;1.55;;;2.10;99.90;;;;;;4847067;29;20044;-68
2022/04/01 06:30:10;;;;;;;2.00;0.98;;;2.10;99.90;;;;;;4878558;29;20068;-68
2022/04/01 06:32:48;;;;;;;3.00;1.00;;;2.10;99.90;;;;;;4878716;29;20136;-69
2022/04/01 06:35:23;;;;;;;2.58;1.05;;;2.80;99.90;;;;;;4876100;29;20064;-68
2022/04/01 06:37:55;;;;;;;3.47;1.17;;;2.20;99.90;;;;;;4875211;29;20167;-68
2022/04/01 06:40:23;;;;;;;;;;;2.20;99.90;;;;;;4879002;29;20127;-68
2022/04/01 06:42:51;;;;;;;2.03;1.02;;;2.30;99.90;;;;;;4860318;29;19938;-68
2022/04/01 06:45:17;;;;;;;2.83;0.93;;;2.30;99.90;;;;;;4848731;29;20057;-68
2022/04/01 06:47:44;;;;;;;3.85;1.30;;;2.30;99.90;;;;;;4859374;29;20432;-67
2022/04/01 06:50:10;;;;;;;2.35;1.25;;;2.40;99.90;;;;;;4846079;29;20092;-68
2022/04/01 06:52:36;;;;;;;4.32;1.23;;;2.40;99.90;;;;;;4879091;29;20088;-68
2022/04/01 06:55:01;;;;;;;3.03;1.30;;;2.40;99.90;;;;;;4872849;29;20152;-68
2022/04/01 06:57:27;;;;;;;1.70;1.20;;;2.50;99.90;;;;;;4875384;29;20053;-68
2022/04/01 06:59:52;;;;;;;1.80;1.23;;;2.50;99.90;;;;;;4871129;29;20391;-66
2022/04/01 07:02:18;;;;;;;4.07;1.30;;;2.50;99.90;;;;;;4871318;29;20068;-66
2022/04/01 07:04:44;;;;;;;2.72;1.42;;;2.50;99.90;;;;;;4844253;29;20057;-66
2022/04/01 07:07:10;;;;;;;2.85;1.10;;;2.50;99.90;;;;;;4861668;29;20472;-66
2022/04/01 07:09:36;;;;;;;3.42;1.30;;;2.50;99.90;;;;;;4861247;29;20053;-66
2022/04/01 07:12:02;;;;;;;2.35;1.30;;;2.50;99.90;;;;;;4877205;29;20486;-66
2022/04/01 07:14:28;;;;;;;1.95;1.30;;;2.60;99.90;;;;;;4840992;29;20424;-65
2022/04/01 07:16:57;;;;;;;2.45;1.90;;;2.60;99.90;;;;;;4867230;29;20059;-68
2022/04/01 07:19:23;;;;;;;4.28;1.50;;;2.60;99.90;;;;;;4860454;29;20053;-66
2022/04/01 07:21:49;;;;;;;2.03;1.13;;;2.70;99.90;;;;;;4855273;29;20053;-66
2022/04/01 07:24:15;;;;;;;1.85;0.93;;;2.70;99.90;;;;;;4871373;29;20061;-67
2022/04/01 07:26:41;;;;;;;1.90;1.10;;;2.80;99.90;;;;;;4874280;29;20123;-66
2022/04/01 07:29:07;;;;;;;2.60;1.35;;;2.80;99.90;;;;;;4877920;29;20053;-66
2022/04/01 07:34:32;;;;;;;1.70;1.10;;;2.80;99.90;;;;;;4878523;29;20049;-68
2022/04/01 07:36:58;;;;;;;2.13;1.27;;;2.80;99.90;;;;;;4862646;29;20065;-68
2022/04/01 07:39:24;;;;;;;3.75;1.35;;;2.80;99.90;;;;;;4877244;29;20056;-69
2022/04/01 07:41:49;;;;;;;3.38;1.23;;;2.80;99.90;;;;;;4862728;29;20104;-68
2022/04/01 07:44:15;;;;;;;1.75;1.27;;;2.80;99.90;;;;;;4861685;29;20053;-69
2022/04/01 07:46:40;;;;;;;1.60;1.10;;;2.80;99.90;;;;;;4861102;29;20052;-69
2022/04/01 07:49:06;;;;;;;2.03;1.15;;;2.80;99.90;;;;;;4857233;29;20403;-68
2022/04/01 07:51:32;;;;;;;4.72;1.77;;;2.80;99.90;;;;;;4852288;29;20104;-69
2022/04/01 07:53:58;;;;;;;3.13;1.42;;;2.90;99.90;;;;;;4848898;29;20050;-69
2022/04/01 07:56:30;;;;;;;2.53;1.20;;;2.90;99.90;;;;;;4870252;29;20072;-69
2022/04/01 07:58:57;;;;;;;3.45;1.50;;;2.90;99.90;;;;;;4882172;29;20143;-68
2022/04/01 08:01:22;;;;;;;1.50;1.40;;;2.90;99.90;;;;;;4854347;29;20052;-68
2022/04/01 08:03:48;;;;;;;2.15;1.55;;;2.80;99.90;;;;;;4877900;29;20080;-68
2022/04/01 08:06:14;;;;;;;3.15;1.80;;;2.80;99.90;;;;;;4875271;29;20065;-70
2022/04/01 08:08:40;;;;;;;4.03;1.90;;;2.90;99.90;;;;;;4851510;29;20061;-70
2022/04/01 08:11:06;;;;;;;3.58;1.80;;;2.90;99.90;;;;;;4855190;29;20060;-69
2022/04/01 08:13:33;;;;;;;3.35;2.28;;;2.80;99.90;;;;;;4859104;29;20076;-70
2022/04/01 08:15:59;;;;;;;4.80;2.13;;;2.80;99.90;;;;;;4854812;29;20371;-71
2022/04/01 08:18:25;;;;;;;2.80;2.42;;;2.90;99.90;;;;;;4880088;29;20065;-69
2022/04/01 08:20:51;;;;;;;4.78;2.35;;;2.80;99.90;;;;;;4850171;29;20061;-67
2022/04/01 08:23:16;;;;;;;4.18;2.03;;;2.80;99.90;;;;;;4857328;29;20073;-68
2022/04/01 08:25:42;;;;;;;4.25;2.28;;;2.80;99.90;;;;;;4844137;29;20104;-69
2022/04/01 08:28:08;;;;;;;4.55;2.30;;;2.80;99.90;;;;;;4853444;29;20049;-69
2022/04/01 08:30:34;;;;;;;4.70;2.50;;;2.90;99.90;;;;;;4882305;29;20045;-68
2022/04/01 08:33:00;;;;;;;2.72;2.33;;;2.90;99.90;;;;;;4848341;29;20050;-69
2022/04/01 08:35:28;;;;;;;4.38;2.65;;;3.00;99.90;;;;;;4853546;29;20088;-68
2022/04/01 08:37:55;;;;;;;6.03;3.08;;;3.00;99.90;;;;;;4858752;29;20078;-69
2022/04/01 08:40:21;;;;;;;3.80;2.78;;;3.00;99.90;;;;;;4856417;29;20050;-69
2022/04/01 08:42:48;;;;;;;6.43;3.70;;;3.00;99.90;;;;;;4849505;29;20049;-69
2022/04/01 08:45:17;;;;;;;4.43;3.45;;;3.00;99.90;;;;;;4859337;29;20563;-69
2022/04/01 08:47:43;;;;;;;5.78;3.30;;;3.00;99.90;;;;;;4850778;29;20596;-69
2022/04/01 08:50:09;;;;;;;4.57;3.63;;;3.00;99.90;;;;;;4881384;29;20125;-70
2022/04/01 08:52:35;;;;;;;6.13;3.70;;;3.10;99.90;;;;;;4877976;29;20144;-69
2022/04/01 08:55:06;;;;;;;5.72;3.70;;;3.00;99.90;;;;;;4878798;29;20053;-70
2022/04/01 08:57:39;;;;;;;5.55;3.83;;;3.00;99.90;;;;;;4853067;29;20060;-69
2022/04/01 09:00:25;;;;;;;5.70;3.80;;;3.10;99.90;;;;;;4857921;29;20060;-69
2022/04/01 09:03:00;;;;;;;6.35;4.50;;;3.00;99.90;;;;;;4849914;29;20459;-70
2022/04/01 09:05:26;;;;;;;5.30;3.95;;;2.90;99.90;;;;;;4848680;29;20054;-69
2022/04/01 09:08:08;;;;;;;6.72;4.57;;;2.90;99.90;;;;;;4893244;29;20058;-69
2022/04/01 09:10:57;;;;;;;7.78;4.25;;;2.90;99.90;;;;;;4856697;29;20069;-69
2022/04/01 09:13:28;;;;;;;6.95;4.40;;;2.90;99.90;;;;;;4861249;29;20058;-72
2022/04/01 09:15:54;;;;;;;7.82;4.85;;;2.80;99.90;;;;;;4863115;29;20128;-69
2022/04/01 09:18:54;;;;;;;7.05;4.88;;;2.80;99.90;;;;;;4857277;29;20065;-68
2022/04/01 09:21:24;;;;;;;5.78;4.40;;;2.80;99.90;;;;;;4814069;29;20062;-70
2022/04/01 09:23:50;;;;;;;8.15;4.53;;;2.80;99.90;;;;;;4855724;29;20550;-69
2022/04/01 09:26:20;;;;;;;8.60;4.80;;;2.90;99.90;;;;;;4863773;29;20140;-69
2022/04/01 09:28:46;;;;;;;5.75;4.57;;;2.90;99.90;;;;;;4861473;29;20129;-69
2022/04/01 09:31:14;;;;;;;6.28;5.22;;;2.90;99.90;;;;;;4893143;29;20137;-68
2022/04/01 09:33:42;;;;;;;8.57;4.80;;;2.90;99.90;;;;;;4860598;29;20092;-67
2022/04/01 09:36:10;;;;;;;7.65;4.93;;;2.90;99.90;;;;;;4854387;29;20061;-68
2022/04/01 09:38:36;;;;;;;8.30;5.57;;;2.80;99.90;;;;;;4854951;29;20085;-69
2022/04/01 09:41:07;;;;;;;6.85;5.03;;;2.90;99.90;;;;;;4854885;29;20077;-68
2022/04/01 09:43:39;;;;;;;6.75;5.13;;;2.90;99.90;;;;;;4851279;29;20110;-69
2022/04/01 09:46:20;;;;;;;9.43;5.00;;;2.80;99.90;;;;;;4827723;29;20058;-70
2022/04/01 09:48:48;;;;;;;8.07;5.22;;;2.90;99.90;;;;;;4855186;29;20554;-69
2022/04/01 09:51:14;;;;;;;8.98;5.32;;;2.80;99.90;;;;;;4842455;29;20066;-69
2022/04/01 09:53:40;;;;;;;8.18;5.40;;;2.80;99.90;;;;;;4857287;29;20061;-69
2022/04/01 09:56:06;;;;;;;7.22;5.07;;;2.80;99.90;;;;;;4854126;29;20046;-68
2022/04/01 09:58:33;;;;;;;6.25;5.43;;;2.70;99.90;;;;;;4853769;29;20054;-69
2022/04/01 10:01:01;;;;;;;7.10;5.65;;;2.70;99.90;;;;;;4850679;29;20137;-69
2022/04/01 10:03:27;;;;;;;6.07;5.35;;;2.70;99.90;;;;;;4827345;29;20050;-68
2022/04/01 10:05:53;;;;;;;7.15;5.32;;;2.80;99.90;;;;;;4854222;29;20121;-70
2022/04/01 10:08:22;;;;;;;10.18;5.35;;;2.80;99.90;;;;;;4852815;29;20076;-69
2022/04/01 10:10:48;;;;;;;7.78;5.80;;;2.80;99.90;;;;;;4857773;29;20057;-68
2022/04/01 10:13:29;;;;;;;6.55;5.45;;;2.90;99.90;;;;;;4859827;29;20068;-69
2022/04/01 10:15:57;;;;;;;7.80;5.43;;;3.00;99.90;;;;;;4856985;29;20061;-68
2022/04/01 10:18:24;;;;;;;8.25;5.95;;;3.10;99.90;;;;;;4854826;29;20132;-68
2022/04/01 10:20:53;;;;;;;15.40;5.50;;;3.10;99.90;;;;;;4879882;29;20062;-66
2022/04/01 10:23:21;;;;;;;6.47;5.63;;;3.10;99.90;;;;;;4839727;29;20096;-65
2022/04/01 10:26:08;;;;;;;7.78;6.07;;;3.10;99.90;;;;;;4854355;29;20058;-68
2022/04/01 10:28:34;;;;;;;8.25;5.90;;;3.20;99.90;;;;;;4857406;29;20555;-67
2022/04/01 10:31:02;;;;;;;9.05;6.05;;;3.20;99.90;;;;;;4851982;29;20129;-68
2022/04/01 10:33:36;;;;;;;7.32;6.00;;;3.20;99.90;;;;;;4862347;29;20058;-66
2022/04/01 10:36:34;;;;;;;7.45;6.18;;;3.50;99.90;;;;;;4858087;29;20046;-69
2022/04/01 10:39:05;;;;;;;7.68;6.07;;;3.20;99.90;;;;;;4840450;29;20162;-68
2022/04/01 10:41:31;;;;;;;7.80;6.18;;;3.30;99.90;;;;;;4851955;29;20056;-69
2022/04/01 10:43:57;;;;;;;8.95;5.85;;;3.30;99.90;;;;;;4860708;29;20124;-68
2022/04/01 10:46:23;;;;;;;7.10;5.18;;;3.30;99.90;;;;;;4861388;29;20054;-69
2022/04/01 10:52:10;;;;;;;5.70;4.07;;;3.30;99.90;;;;;;4861095;29;20090;-68
2022/04/01 10:54:42;;;;;;;4.90;3.40;;;3.20;99.90;;;;;;4861724;29;20089;-68
2022/04/01 10:57:10;;;;;;;4.53;3.00;;;3.20;99.90;;;;;;4861053;29;20057;-69
2022/04/01 10:59:44;;;;;;;4.85;3.20;;;3.10;99.90;;;;;;4861705;29;20057;-69
2022/04/01 11:02:15;;;;;;;6.68;3.22;;;3.10;99.90;;;;;;4856794;29;20487;-69
2022/04/01 11:04:44;;;;;;;4.25;2.97;;;3.10;99.90;;;;;;4861277;29;20069;-68
2022/04/01 11:07:21;;;;;;;5.03;3.20;;;3.10;99.90;;;;;;4861799;29;20057;-68
2022/04/01 11:09:56;;;;;;;5.10;3.20;;;3.20;99.90;;;;;;4860128;29;20062;-68
2022/04/01 11:12:29;;;;;;;3.83;2.92;;;3.20;99.90;;;;;;4860889;29;20049;-70
2022/04/01 11:14:58;;;;;;;4.95;3.20;;;3.10;99.90;;;;;;4859846;29;20061;-67
2022/04/01 11:17:29;;;;;;;3.58;2.70;;;3.20;99.90;;;;;;4859886;29;20053;-69
2022/04/01 11:20:05;;;;;;;5.32;2.90;;;3.30;99.90;;;;;;4859086;29;20064;-68
2022/04/01 11:22:44;;;;;;;5.05;2.38;;;3.40;99.90;;;;;;4850491;29;20075;-68
2022/04/01 11:25:24;;;;;;;6.22;2.67;;;3.30;99.90;;;;;;4852955;29;20065;-69
2022/04/01 11:27:50;;;;;;;4.80;3.30;;;3.40;99.90;;;;;;4852193;29;20069;-68
2022/04/01 11:30:21;;;;;;;4.20;2.70;;;3.50;99.90;;;;;;4851362;29;20542;-68
2022/04/01 11:32:57;;;;;;;3.03;2.70;;;3.60;99.90;;;;;;4852439;29;20057;-69
2022/04/01 11:35:25;;;;;;;4.22;2.30;;;3.50;99.90;;;;;;4845592;29;20050;-68
2022/04/01 11:37:51;;;;;;;5.32;2.75;;;3.40;99.90;;;;;;4844741;29;20073;-68
2022/04/01 11:40:18;;;;;;;4.95;2.78;;;3.30;99.90;;;;;;4853591;29;20062;-68
2022/04/01 11:42:53;;;;;;;5.90;2.40;;;3.40;99.90;;;;;;4852767;29;20065;-69
2022/04/01 11:45:20;;;;;;;2.60;2.40;;;3.30;99.90;;;;;;4859091;29;20140;-68
2022/04/01 11:47:46;;;;;;;4.13;2.75;;;3.30;99.90;;;;;;4857743;29;20069;-68
2022/04/01 11:50:14;;;;;;;3.95;2.53;;;3.30;99.90;;;;;;4853446;29;20046;-69
2022/04/01 11:52:52;;;;;;;5.53;2.90;;;3.20;99.90;;;;;;4859342;29;20440;-68
2022/04/01 11:55:27;;;;;;;4.15;2.67;;;3.40;99.90;;;;;;4859353;29;20449;-71
2022/04/01 11:57:55;;;;;;;3.08;2.40;;;3.40;99.90;;;;;;4845668;29;20066;-69
2022/04/01 12:00:26;;;;;;;2.55;2.20;;;3.50;99.90;;;;;;4840991;29;20065;-68
2022/04/01 12:02:53;;;;;;;5.18;2.20;;;3.50;99.90;;;;;;4840955;29;20072;-68
2022/04/01 12:05:20;;;;;;;2.80;1.95;;;3.50;99.90;;;;;;4841218;29;20058;-68
2022/04/01 12:10:41;;;;;;;2.33;2.13;;;3.60;99.90;;;;;;4840668;29;20121;-70
2022/04/01 12:13:09;;;;;;;3.88;1.92;;;3.50;99.90;;;;;;4840418;29;20206;-68
2022/04/01 12:15:40;;;;;;;3.30;2.20;;;3.60;99.90;;;;;;4841026;29;20141;-69
2022/04/01 12:18:11;;;;;;;2.47;1.85;;;3.70;99.90;;;;;;4845316;29;20155;-68
2022/04/01 12:20:42;;;;;;;4.28;2.40;;;3.70;99.90;;;;;;4859760;29;20392;-69
2022/04/01 12:23:08;;;;;;;2.83;2.20;;;3.80;99.90;;;;;;4858927;29;20050;-68
2022/04/01 12:25:35;;;;;;;3.60;2.30;;;3.70;99.90;;;;;;4858603;29;20068;-69
2022/04/01 12:28:04;;;;;;;2.50;1.90;;;3.60;99.90;;;;;;4858151;29;20049;-68
2022/04/01 12:30:32;;;;;;;3.42;1.67;;;3.70;99.90;;;;;;4891065;29;20061;-69
2022/04/01 12:33:06;;;;;;;2.65;2.15;;;3.70;99.90;;;;;;4860900;29;20058;-69
2022/04/01 12:35:33;;;;;;;3.88;1.80;;;3.60;99.90;;;;;;4863408;29;20452;-68
2022/04/01 12:38:07;;;;;;;2.53;1.90;;;3.60;99.90;;;;;;4863997;29;20136;-70
2022/04/01 12:40:57;;;;;;;2.22;1.88;;;3.60;99.90;;;;;;4855618;29;20065;-67
2022/04/01 12:43:43;;;;;;;2.55;1.80;;;3.60;99.90;;;;;;4845265;29;20042;-67
2022/04/01 12:46:29;;;;;;;2.92;1.95;;;3.70;99.90;;;;;;4845640;29;20053;-69
2022/04/01 12:48:56;;;;;;;3.38;1.95;;;3.80;99.90;;;;;;4844862;29;20092;-68
2022/04/01 12:51:36;;;;;;;3.30;1.98;;;3.90;99.90;;;;;;4856033;29;20049;-67
2022/04/01 12:54:04;;;;;;;2.65;1.85;;;4.00;99.90;;;;;;4892544;29;20064;-69
2022/04/01 12:56:31;;;;;;;5.18;1.90;;;4.00;99.90;;;;;;4844212;29;20184;-68
2022/04/01 12:59:04;;;;;;;3.13;1.90;;;4.00;99.90;;;;;;4844652;29;20054;-68
2022/04/01 13:01:32;;;;;;;4.07;2.13;;;3.90;99.90;;;;;;4845023;29;20484;-68
2022/04/01 13:03:58;;;;;;;2.17;1.83;;;4.00;99.90;;;;;;4845313;29;20042;-67
2022/04/01 13:06:26;;;;;;;2.97;2.60;;;4.00;99.90;;;;;;4845465;29;20062;-67
2022/04/01 13:09:07;;;;;;;4.20;1.92;;;4.10;99.90;;;;;;4843944;29;20054;-67
2022/04/01 13:11:40;;;;;;;3.30;1.90;;;4.30;99.90;;;;;;4844525;29;20053;-68
2022/04/01 13:14:24;;;;;;;2.38;2.15;;;4.30;99.90;;;;;;4847275;29;20164;-67
2022/04/01 13:16:53;;;;;;;3.28;2.22;;;4.20;99.90;;;;;;4854555;29;20062;-68
2022/04/01 13:19:26;;;;;;;2.00;1.88;;;4.10;99.90;;;;;;4860765;29;20129;-68
2022/04/01 13:21:54;;;;;;;3.67;2.10;;;4.10;99.90;;;;;;4861811;29;20427;-67
2022/04/01 13:24:22;;;;;;;3.67;2.22;;;4.20;99.90;;;;;;4861565;29;20118;-68
2022/04/01 13:26:48;;;;;;;2.55;2.35;;;4.20;99.90;;;;;;4855787;29;20082;-68
2022/04/01 13:29:14;;;;;;;2.38;1.92;;;4.40;99.90;;;;;;4855704;29;20057;-68
2022/04/01 13:31:40;;;;;;;3.17;2.08;;;4.50;99.90;;;;;;4851890;29;20081;-68
2022/04/01 13:34:07;;;;;;;3.97;2.20;;;4.40;99.90;;;;;;4856646;29;20431;-68
2022/04/01 13:36:33;;;;;;;3.45;2.40;;;4.40;99.90;;;;;;4844322;29;20064;-68
2022/04/01 13:38:59;;;;;;;2.55;1.75;;;4.40;99.90;;;;;;4853634;29;20514;-70
2022/04/01 13:41:25;;;;;;;5.35;2.22;;;4.50;99.90;;;;;;4852154;29;20045;-69
2022/04/01 13:43:50;;;;;;;3.15;2.13;;;4.50;99.90;;;;;;4882437;29;20079;-68
2022/04/01 13:46:18;;;;;;;4.55;2.22;;;4.50;99.90;;;;;;4851939;29;20077;-68
2022/04/01 13:48:44;;;;;;;2.60;2.08;;;4.50;99.90;;;;;;4880984;29;20121;-70